createdAt,value
2019-03-30T00:02:23.275Z,51.40
2019-03-30T00:04:53.783Z,50.20
2019-03-30T00:07:24.761Z,53.57
2019-03-30T00:09:54.976Z,58.13
2019-03-30T00:12:25.226Z,57.47
2019-03-30T00:14:55.416Z,58.20
2019-03-30T00:17:25.589Z,55.03
2019-03-30T00:19:55.999Z,61.47
2019-03-30T00:22:26.253Z,62.33
2019-03-30T00:24:56.672Z,59.97
2019-03-30T00:27:26.931Z,65.57
2019-03-30T00:29:57.191Z,57.73
2019-03-30T00:32:27.378Z,59.40
2019-03-30T00:34:58.108Z,56.67
2019-03-30T00:37:28.355Z,64.90
2019-03-30T00:39:58.785Z,66.63
2019-03-30T00:42:29.201Z,68.00
2019-03-30T00:44:59.362Z,64.83
2019-03-30T00:47:29.526Z,64.60
2019-03-30T00:49:59.831Z,58.70
2019-03-30T00:52:30.283Z,64.30
2019-03-30T00:55:00.539Z,69.77
2019-03-30T00:57:30.710Z,64.77
2019-03-30T01:00:01.164Z,67.03
2019-03-30T01:02:32.277Z,65.77
2019-03-30T01:05:02.983Z,56.93
2019-03-30T01:07:33.846Z,55.60
2019-03-30T01:10:04.618Z,50.10
2019-03-30T01:12:34.813Z,50.43
2019-03-30T01:15:06.004Z,48.67
2019-03-30T01:17:36.246Z,46.17
2019-03-30T01:20:07.146Z,43.67
2019-03-30T01:22:37.568Z,46.77
2019-03-30T01:25:08.390Z,44.23
2019-03-30T01:27:38.638Z,41.73
2019-03-30T01:30:22.463Z,44.77
2019-03-30T01:32:42.661Z,46.50
2019-03-30T01:35:13.069Z,42.10
2019-03-30T01:37:43.342Z,40.77
2019-03-30T01:40:13.850Z,45.57
2019-03-30T01:42:44.132Z,52.03
2019-03-30T01:45:14.799Z,55.40
2019-03-30T01:47:45.041Z,49.27
2019-03-30T01:50:17.796Z,52.93
2019-03-30T01:52:47.568Z,51.20
2019-03-30T01:55:17.973Z,54.17
2019-03-30T01:57:48.282Z,55.47
2019-03-30T02:00:18.927Z,60.80
2019-03-30T02:02:49.192Z,56.07
2019-03-30T02:05:19.531Z,56.30
2019-03-30T02:07:50.232Z,59.63
2019-03-30T02:10:43.339Z,58.13
2019-03-30T02:13:13.911Z,63.00
2019-03-30T02:15:44.383Z,56.93
2019-03-30T02:18:14.666Z,57.93
2019-03-30T02:20:45.999Z,64.93
2019-03-30T02:23:16.498Z,62.17
2019-03-30T02:25:46.898Z,57.83
2019-03-30T02:28:17.316Z,50.83
2019-03-30T02:30:47.612Z,43.43
2019-03-30T02:33:17.930Z,44.67
2019-03-30T02:35:48.473Z,42.10
2019-03-30T02:38:18.766Z,39.80
2019-03-30T02:40:49.167Z,46.63
2019-03-30T02:43:19.423Z,49.07
2019-03-30T02:45:49.934Z,48.37
2019-03-30T02:48:20.117Z,49.43
2019-03-30T02:50:50.853Z,61.53
2019-03-30T02:53:21.464Z,54.00
2019-03-30T02:55:51.698Z,54.50
2019-03-30T02:58:22.198Z,55.27
2019-03-30T03:00:52.363Z,54.67
2019-03-30T03:03:23.212Z,52.37
2019-03-30T03:05:53.451Z,56.93
2019-03-30T03:08:24.122Z,57.40
2019-03-30T03:10:54.610Z,54.37
2019-03-30T03:13:25.151Z,55.43
2019-03-30T03:15:55.613Z,51.43
2019-03-30T03:18:26.256Z,56.83
2019-03-30T03:21:07.182Z,59.20
2019-03-30T03:23:28.286Z,48.20
2019-03-30T03:25:58.467Z,54.70
2019-03-30T03:28:29.640Z,57.47
2019-03-30T03:31:00.082Z,52.87
2019-03-30T03:33:30.240Z,49.60
2019-03-30T03:36:00.494Z,53.40
2019-03-30T03:38:30.669Z,47.93
2019-03-30T03:41:01.281Z,51.20
2019-03-30T03:43:31.442Z,60.83
2019-03-30T03:46:01.972Z,62.70
2019-03-30T03:48:32.270Z,56.47
2019-03-30T03:51:03.874Z,48.03
2019-03-30T03:53:35.590Z,45.13
2019-03-30T03:56:06.665Z,43.77
2019-03-30T03:58:37.326Z,39.00
2019-03-30T04:01:08.011Z,33.87
2019-03-30T04:03:39.125Z,35.97
2019-03-30T04:06:09.375Z,42.23
2019-03-30T04:08:42.508Z,39.67
2019-03-30T04:11:14.976Z,43.50
2019-03-30T04:13:47.564Z,59.67
2019-03-30T04:16:18.024Z,56.07
2019-03-30T04:18:48.658Z,53.00
2019-03-30T04:21:19.549Z,52.73
2019-03-30T04:23:53.956Z,50.43
2019-03-30T04:26:21.669Z,48.70
2019-03-30T04:28:51.824Z,48.70
2019-03-30T04:31:21.982Z,41.03
2019-03-30T04:33:52.918Z,41.80
2019-03-30T04:36:23.093Z,44.77
2019-03-30T04:38:53.283Z,46.67
2019-03-30T04:41:23.459Z,49.40
2019-03-30T04:43:53.628Z,43.90
2019-03-30T04:46:23.812Z,43.47
2019-03-30T04:48:53.968Z,37.67
2019-03-30T04:51:24.153Z,37.60
2019-03-30T04:53:54.320Z,48.60
2019-03-30T04:56:25.570Z,45.27
2019-03-30T04:58:55.747Z,44.57
2019-03-30T05:01:26.221Z,43.67
2019-03-30T05:03:56.419Z,48.17
2019-03-30T05:06:26.658Z,54.63
2019-03-30T05:08:57.180Z,49.40
2019-03-30T05:11:27.387Z,55.20
2019-03-30T05:13:57.551Z,52.80
2019-03-30T05:16:27.750Z,52.83
2019-03-30T05:18:57.992Z,57.90
2019-03-30T05:21:28.173Z,60.27
2019-03-30T05:23:58.343Z,61.37
2019-03-30T05:26:29.482Z,68.33
2019-03-30T05:28:59.659Z,67.00
2019-03-30T05:31:30.323Z,65.27
2019-03-30T05:34:01.002Z,65.23
2019-03-30T05:36:31.280Z,66.97
2019-03-30T05:39:01.459Z,66.97
2019-03-30T05:41:32.259Z,88.53
2019-03-30T05:44:02.681Z,101.43
2019-03-30T05:46:33.053Z,104.87
2019-03-30T05:49:03.543Z,128.40
2019-03-30T05:51:33.705Z,124.53
2019-03-30T05:54:03.954Z,138.17
2019-03-30T05:56:34.142Z,144.00
2019-03-30T05:59:04.607Z,141.03
2019-03-30T06:01:35.084Z,150.17
2019-03-30T06:04:05.566Z,143.50
2019-03-30T06:06:35.739Z,134.23
2019-03-30T06:09:07.000Z,148.90
2019-03-30T06:11:37.967Z,157.50
2019-03-30T06:14:08.671Z,135.80
2019-03-30T06:16:38.906Z,143.40
2019-03-30T06:19:09.163Z,142.67
2019-03-30T06:21:40.475Z,135.47
2019-03-30T06:24:11.338Z,126.43
2019-03-30T06:26:41.522Z,127.50
2019-03-30T06:29:11.752Z,127.37
2019-03-30T06:31:41.916Z,116.23
2019-03-30T06:34:12.090Z,89.83
2019-03-30T06:36:42.331Z,95.60
2019-03-30T06:39:12.497Z,89.90
2019-03-30T06:41:42.669Z,93.00
2019-03-30T06:44:13.098Z,86.67
2019-03-30T06:46:43.346Z,76.83
2019-03-30T06:49:13.522Z,72.17
2019-03-30T06:51:44.009Z,68.23
2019-03-30T06:54:14.865Z,73.20
2019-03-30T06:56:45.685Z,66.10
2019-03-30T06:59:15.864Z,61.57
2019-03-30T07:01:46.697Z,62.17
2019-03-30T07:04:16.946Z,57.03
2019-03-30T07:06:48.362Z,58.07
2019-03-30T07:09:21.967Z,54.00
2019-03-30T07:11:54.654Z,56.87
2019-03-30T07:14:26.934Z,50.60
2019-03-30T07:17:01.557Z,50.20
2019-03-30T07:19:32.220Z,52.30
2019-03-30T07:22:02.867Z,54.03
2019-03-30T07:24:33.077Z,51.17
2019-03-30T07:27:03.512Z,50.90
2019-03-30T07:29:34.007Z,47.27
2019-03-30T07:32:04.410Z,46.20
2019-03-30T07:34:34.594Z,40.47
2019-03-30T07:37:04.914Z,44.67
2019-03-30T07:39:35.128Z,41.07
2019-03-30T07:42:06.160Z,40.27
2019-03-30T07:44:36.326Z,41.30
2019-03-30T07:47:06.523Z,41.83
2019-03-30T07:49:36.766Z,35.23
2019-03-30T07:52:07.050Z,39.07
2019-03-30T07:54:37.239Z,42.23
2019-03-30T07:57:16.508Z,36.00
2019-03-30T07:59:39.333Z,36.00
2019-03-30T08:02:09.894Z,36.50
2019-03-30T08:04:40.224Z,37.23
2019-03-30T08:07:10.737Z,37.57
2019-03-30T08:09:41.059Z,38.77
2019-03-30T08:12:11.603Z,35.50
2019-03-30T08:14:44.994Z,36.27
2019-03-30T08:17:14.006Z,34.87
2019-03-30T08:19:44.447Z,33.90
2019-03-30T08:22:14.967Z,32.37
2019-03-30T08:24:45.370Z,33.80
2019-03-30T08:27:15.629Z,31.73
2019-03-30T08:29:46.161Z,31.20
2019-03-30T08:32:16.795Z,30.03
2019-03-30T08:34:46.978Z,28.80
2019-03-30T08:37:17.176Z,29.73
2019-03-30T08:39:48.195Z,31.53
2019-03-30T08:42:19.447Z,28.47
2019-03-30T08:44:49.827Z,27.20
2019-03-30T08:47:20.376Z,23.60
2019-03-30T08:49:50.534Z,24.47
2019-03-30T08:52:20.718Z,26.30
2019-03-30T08:54:51.205Z,26.70
2019-03-30T08:57:21.371Z,24.80
2019-03-30T08:59:51.787Z,27.73
2019-03-30T09:02:22.556Z,24.57
2019-03-30T09:04:52.719Z,26.17
2019-03-30T09:07:22.911Z,26.57
2019-03-30T09:09:53.088Z,24.00
2019-03-30T09:12:24.312Z,28.77
2019-03-30T09:14:55.711Z,26.13
2019-03-30T09:17:25.885Z,26.07
2019-03-30T09:19:56.050Z,25.40
2019-03-30T09:22:26.253Z,24.07
2019-03-30T09:24:56.454Z,28.23
2019-03-30T09:27:26.634Z,29.03
2019-03-30T09:29:56.814Z,24.00
2019-03-30T09:32:26.996Z,26.20
2019-03-30T09:34:57.187Z,24.80
2019-03-30T09:37:27.430Z,25.43
2019-03-30T09:39:57.607Z,24.87
2019-03-30T09:42:27.786Z,25.80
2019-03-30T09:44:58.086Z,22.73
2019-03-30T09:47:28.590Z,23.57
2019-03-30T09:50:02.274Z,22.80
2019-03-30T09:52:30.842Z,21.93
2019-03-30T09:55:01.031Z,23.97
2019-03-30T09:57:31.546Z,21.47
2019-03-30T10:00:01.803Z,25.67
2019-03-30T10:02:32.291Z,21.27
2019-03-30T10:05:02.480Z,26.03
2019-03-30T10:07:34.471Z,181.07
2019-03-30T10:10:05.512Z,25.57
2019-03-30T10:12:35.677Z,22.50
2019-03-30T10:15:07.108Z,23.43
2019-03-30T10:17:37.304Z,23.47
2019-03-30T10:20:08.792Z,23.13
2019-03-30T10:22:42.057Z,24.90
2019-03-30T10:25:11.411Z,24.50
2019-03-30T10:27:41.583Z,25.40
2019-03-30T10:30:12.214Z,24.27
2019-03-30T10:32:42.385Z,24.20
2019-03-30T10:35:12.701Z,30.83
2019-03-30T10:37:43.436Z,24.87
2019-03-30T10:40:13.987Z,27.53
2019-03-30T10:42:45.024Z,31.50
2019-03-30T10:45:15.363Z,33.47
2019-03-30T10:47:46.112Z,26.67
2019-03-30T10:50:16.833Z,159.13
2019-03-30T10:52:47.099Z,31.70
2019-03-30T10:55:17.358Z,27.07
2019-03-30T10:57:48.276Z,26.87
2019-03-30T11:00:46.196Z,26.83
2019-03-30T11:03:16.467Z,28.77
2019-03-30T11:05:46.692Z,29.03
2019-03-30T11:08:17.287Z,35.57
2019-03-30T11:10:48.050Z,37.53
2019-03-30T11:13:18.215Z,26.77
2019-03-30T11:15:49.380Z,30.10
2019-03-30T11:18:19.592Z,29.17
2019-03-30T11:20:49.913Z,43.27
2019-03-30T11:23:20.070Z,28.57
2019-03-30T11:25:50.275Z,29.87
2019-03-30T11:28:20.463Z,40.27
2019-03-30T11:30:50.736Z,31.30
2019-03-30T11:33:20.916Z,60.10
2019-03-30T11:35:51.144Z,30.13
2019-03-30T11:38:21.318Z,28.10
2019-03-30T11:40:51.487Z,29.57
2019-03-30T11:43:21.733Z,33.70
2019-03-30T11:45:52.054Z,30.90
2019-03-30T11:48:22.283Z,33.37
2019-03-30T11:50:52.482Z,33.97
2019-03-30T11:53:22.931Z,31.77
2019-03-30T11:55:53.233Z,33.37
2019-03-30T11:58:23.496Z,30.60
2019-03-30T12:00:53.683Z,31.60
2019-03-30T12:03:23.962Z,33.00
2019-03-30T12:05:54.128Z,30.37
2019-03-30T12:08:24.316Z,29.83
2019-03-30T12:10:55.009Z,28.33
2019-03-30T12:13:25.314Z,26.47
2019-03-30T12:15:55.493Z,30.87
2019-03-30T12:18:25.861Z,28.07
2019-03-30T12:20:56.262Z,29.97
2019-03-30T12:23:26.526Z,26.43
2019-03-30T12:25:56.801Z,29.07
2019-03-30T12:28:26.996Z,28.00
2019-03-30T12:30:57.291Z,26.13
2019-03-30T12:33:27.522Z,23.57
2019-03-30T12:35:57.691Z,27.17
2019-03-30T12:38:27.879Z,20.53
2019-03-30T12:40:58.279Z,20.57
2019-03-30T12:43:28.594Z,20.27
2019-03-30T12:45:58.902Z,20.57
2019-03-30T12:48:29.326Z,23.63
2019-03-30T12:51:00.536Z,24.10
2019-03-30T12:53:31.234Z,20.30
2019-03-30T12:56:02.036Z,22.40
2019-03-30T12:58:32.214Z,24.27
2019-03-30T13:01:02.506Z,24.03
2019-03-30T13:03:32.770Z,26.83
2019-03-30T13:06:03.039Z,23.87
2019-03-30T13:08:33.223Z,25.37
2019-03-30T13:11:03.466Z,26.00
2019-03-30T13:13:33.674Z,23.93
2019-03-30T13:16:03.968Z,26.67
2019-03-30T13:18:34.472Z,28.77
2019-03-30T13:21:04.726Z,30.23
2019-03-30T13:23:34.904Z,26.47
2019-03-30T13:26:05.107Z,25.17
2019-03-30T13:28:35.320Z,28.03
2019-03-30T13:31:05.638Z,27.43
2019-03-30T13:33:35.872Z,23.67
2019-03-30T13:36:10.519Z,24.73
2019-03-30T13:38:39.854Z,24.57
2019-03-30T13:41:13.806Z,24.33
2019-03-30T13:43:42.300Z,22.43
2019-03-30T13:46:12.480Z,25.40
2019-03-30T13:48:42.647Z,22.87
2019-03-30T13:51:12.823Z,21.40
2019-03-30T13:53:43.318Z,20.27
2019-03-30T13:56:17.470Z,21.73
2019-03-30T13:58:45.385Z,20.60
2019-03-30T14:01:15.950Z,21.30
2019-03-30T14:03:46.135Z,20.67
2019-03-30T14:06:16.716Z,21.00
2019-03-30T14:08:46.960Z,19.77
2019-03-30T14:11:17.240Z,24.83
2019-03-30T14:13:47.718Z,20.93
2019-03-30T14:16:17.899Z,20.63
2019-03-30T14:18:48.310Z,20.17
2019-03-30T14:21:18.486Z,18.93
2019-03-30T14:23:48.978Z,20.00
2019-03-30T14:26:30.789Z,16.07
2019-03-30T14:28:51.609Z,17.83
2019-03-30T14:31:21.790Z,16.67
2019-03-30T14:33:51.968Z,18.47
2019-03-30T14:36:22.231Z,17.90
2019-03-30T14:38:53.372Z,20.23
2019-03-30T14:41:23.552Z,17.07
2019-03-30T14:43:53.715Z,17.93
2019-03-30T14:46:24.230Z,19.80
2019-03-30T14:48:54.475Z,17.60
2019-03-30T14:51:24.641Z,21.07
2019-03-30T14:53:54.864Z,18.90
2019-03-30T14:56:25.131Z,18.27
2019-03-30T14:59:09.148Z,17.87
2019-03-30T15:01:27.163Z,18.47
2019-03-30T15:03:57.426Z,19.30
2019-03-30T15:06:27.606Z,18.00
2019-03-30T15:08:57.827Z,17.47
2019-03-30T15:11:28.007Z,16.73
2019-03-30T15:13:58.500Z,16.67
2019-03-30T15:16:28.679Z,16.90
2019-03-30T15:18:58.911Z,17.03
2019-03-30T15:21:29.096Z,19.20
2019-03-30T15:24:00.119Z,16.70
2019-03-30T15:26:30.367Z,18.30
2019-03-30T15:29:00.543Z,17.10
2019-03-30T15:31:30.722Z,19.40
2019-03-30T15:34:00.963Z,18.13
2019-03-30T15:36:31.134Z,22.20
2019-03-30T15:39:01.368Z,19.53
2019-03-30T15:41:33.944Z,19.27
2019-03-30T15:44:04.210Z,22.00
2019-03-30T15:46:34.750Z,18.13
2019-03-30T15:49:05.103Z,18.23
2019-03-30T15:51:37.553Z,22.23
2019-03-30T15:54:07.831Z,21.23
2019-03-30T15:56:38.013Z,19.77
2019-03-30T15:59:08.351Z,20.73
2019-03-30T16:01:38.591Z,21.63
2019-03-30T16:04:09.106Z,21.03
2019-03-30T16:06:39.330Z,19.33
2019-03-30T16:09:09.923Z,21.20
2019-03-30T16:11:40.190Z,20.50
2019-03-30T16:14:10.365Z,21.37
2019-03-30T16:16:40.535Z,20.43
2019-03-30T16:19:10.727Z,20.77
2019-03-30T16:21:40.967Z,21.77
2019-03-30T16:24:11.211Z,20.87
2019-03-30T16:26:42.538Z,21.90
2019-03-30T16:29:12.971Z,20.80
2019-03-30T16:31:43.362Z,23.70
2019-03-30T16:34:14.461Z,23.37
2019-03-30T16:36:45.168Z,21.20
2019-03-30T16:39:15.701Z,21.03
2019-03-30T16:41:45.890Z,21.90
2019-03-30T16:44:16.311Z,22.20
2019-03-30T16:46:46.750Z,20.03
2019-03-30T16:49:16.931Z,19.33
2019-03-30T16:51:47.109Z,20.73
2019-03-30T16:54:18.378Z,19.80
2019-03-30T16:56:48.651Z,20.03
2019-03-30T16:59:19.155Z,20.47
2019-03-30T17:01:49.324Z,21.63
2019-03-30T17:04:19.782Z,20.63
2019-03-30T17:06:50.065Z,22.87
2019-03-30T17:09:20.238Z,20.13
2019-03-30T17:11:50.470Z,20.00
2019-03-30T17:14:20.743Z,21.87
2019-03-30T17:16:50.907Z,24.93
2019-03-30T17:19:21.855Z,21.87
2019-03-30T17:21:52.274Z,25.20
2019-03-30T17:24:22.660Z,20.77
2019-03-30T17:26:52.828Z,21.17
2019-03-30T17:29:23.186Z,25.40
2019-03-30T17:31:53.616Z,27.47
2019-03-30T17:34:24.119Z,31.53
2019-03-30T17:36:54.432Z,32.30
2019-03-30T17:39:24.666Z,25.93
2019-03-30T17:41:55.408Z,25.33
2019-03-30T17:44:25.655Z,26.07
2019-03-30T17:46:56.083Z,25.00
2019-03-30T17:49:26.604Z,27.43
2019-03-30T17:51:57.106Z,27.10
2019-03-30T17:54:27.496Z,25.27
2019-03-30T17:56:57.662Z,26.23
2019-03-30T17:59:28.147Z,28.43
2019-03-30T18:01:58.670Z,23.43
2019-03-30T18:04:29.479Z,28.10
2019-03-30T18:07:00.297Z,33.63
2019-03-30T18:09:30.679Z,38.00
2019-03-30T18:12:00.952Z,39.13
2019-03-30T18:14:31.574Z,45.53
2019-03-30T18:17:02.383Z,47.70
2019-03-30T18:19:32.988Z,51.87
2019-03-30T18:22:03.211Z,54.07
2019-03-30T18:24:33.632Z,62.27
2019-03-30T18:27:03.944Z,56.87
2019-03-30T18:29:34.255Z,61.60
2019-03-30T18:32:04.574Z,56.23
2019-03-30T18:34:35.196Z,60.63
2019-03-30T18:37:06.348Z,66.57
2019-03-30T18:39:36.663Z,64.00
2019-03-30T18:42:07.028Z,61.90
2019-03-30T18:44:37.559Z,60.97
2019-03-30T18:47:07.850Z,61.80
2019-03-30T18:49:38.168Z,65.30
2019-03-30T18:52:08.617Z,61.70
2019-03-30T18:54:38.951Z,60.87
2019-03-30T18:57:09.463Z,65.10
2019-03-30T18:59:39.963Z,65.53
2019-03-30T19:02:10.404Z,64.23
2019-03-30T19:04:40.577Z,65.60
2019-03-30T19:07:11.451Z,67.53
2019-03-30T19:09:41.622Z,71.83
2019-03-30T19:12:12.534Z,75.13
2019-03-30T19:14:42.711Z,74.82
2019-03-30T19:17:12.900Z,75.27
2019-03-30T19:19:43.204Z,70.20
2019-03-30T19:22:13.376Z,73.57
2019-03-30T19:24:43.839Z,73.13
2019-03-30T19:27:14.102Z,76.43
2019-03-30T19:29:44.521Z,71.73
2019-03-30T19:32:14.809Z,69.67
2019-03-30T19:34:45.061Z,72.03
2019-03-30T19:37:15.294Z,71.70
2019-03-30T19:39:45.742Z,77.35
2019-03-30T19:42:16.053Z,75.17
2019-03-30T19:44:46.204Z,76.27
2019-03-30T19:47:16.424Z,83.53
2019-03-30T19:49:46.600Z,82.95
2019-03-30T19:52:17.043Z,87.07
2019-03-30T19:54:47.454Z,90.60
2019-03-30T19:57:18.599Z,80.73
2019-03-30T19:59:49.847Z,85.47
2019-03-30T20:02:21.306Z,81.90
2019-03-30T20:04:51.497Z,83.17
2019-03-30T20:07:21.667Z,83.40
2019-03-30T20:09:51.847Z,97.30
2019-03-30T20:12:22.068Z,87.20
2019-03-30T20:14:52.379Z,85.20
2019-03-30T20:17:22.637Z,84.33
2019-03-30T20:19:52.818Z,80.30
2019-03-30T20:22:22.990Z,85.37
2019-03-30T20:24:53.167Z,86.23
2019-03-30T20:27:23.382Z,85.40
2019-03-30T20:29:53.607Z,87.13
2019-03-30T20:32:23.774Z,85.10
2019-03-30T20:34:53.946Z,90.03
2019-03-30T20:37:24.456Z,88.70
2019-03-30T20:39:54.956Z,85.07
2019-03-30T20:42:25.121Z,89.57
2019-03-30T20:44:55.302Z,91.97
2019-03-30T20:47:25.476Z,90.70
2019-03-30T20:49:55.660Z,92.60
2019-03-30T20:52:25.904Z,87.43
2019-03-30T20:54:56.084Z,87.93
2019-03-30T20:57:26.258Z,89.37
2019-03-30T20:59:56.548Z,92.50
2019-03-30T21:02:26.723Z,86.83
2019-03-30T21:04:56.967Z,84.30
2019-03-30T21:07:27.970Z,84.73
2019-03-30T21:09:58.583Z,80.13
2019-03-30T21:12:28.755Z,90.33
2019-03-30T21:14:59.012Z,88.90
2019-03-30T21:17:29.184Z,91.73
2019-03-30T21:19:59.365Z,85.10
2019-03-30T21:22:29.563Z,91.93
2019-03-30T21:24:59.758Z,98.00
2019-03-30T21:27:30.243Z,88.50
2019-03-30T21:30:00.776Z,87.67
2019-03-30T21:32:32.027Z,98.47
2019-03-30T21:35:02.227Z,95.83
2019-03-30T21:37:32.887Z,88.97
2019-03-30T21:40:03.058Z,96.07
2019-03-30T21:42:33.276Z,94.23
2019-03-30T21:45:03.518Z,97.43
2019-03-30T21:47:33.701Z,96.27
2019-03-30T21:50:04.563Z,98.77
2019-03-30T21:52:34.722Z,102.87
2019-03-30T21:55:05.664Z,96.90
2019-03-30T21:57:35.868Z,103.70
2019-03-30T22:00:10.220Z,102.30
2019-03-30T22:02:39.524Z,104.77
2019-03-30T22:05:09.750Z,106.27
2019-03-30T22:07:40.824Z,111.17
2019-03-30T22:10:14.120Z,113.97
2019-03-30T22:12:44.384Z,107.47
2019-03-30T22:15:17.626Z,109.07
2019-03-30T22:17:47.802Z,100.07
2019-03-30T22:20:21.176Z,102.23
2019-03-30T22:22:49.934Z,114.63
2019-03-30T22:25:20.418Z,100.73
2019-03-30T22:27:50.754Z,103.23
2019-03-30T22:30:25.138Z,104.63
2019-03-30T22:32:52.779Z,100.07
2019-03-30T22:35:22.939Z,101.67
2019-03-30T22:37:53.638Z,101.47
2019-03-30T22:40:24.186Z,100.20
2019-03-30T22:42:54.749Z,102.87
2019-03-30T22:45:24.907Z,104.43
2019-03-30T22:47:55.099Z,108.20
2019-03-30T22:50:25.334Z,106.17
2019-03-30T22:52:55.775Z,110.97
2019-03-30T22:55:26.025Z,108.37
2019-03-30T22:57:56.313Z,98.77
2019-03-30T23:00:45.707Z,108.33
2019-03-30T23:03:16.223Z,108.53
2019-03-30T23:05:46.509Z,102.47
2019-03-30T23:08:16.683Z,103.53
2019-03-30T23:10:46.990Z,113.07
2019-03-30T23:13:17.172Z,108.47
2019-03-30T23:15:47.374Z,96.33
2019-03-30T23:18:17.546Z,110.03
2019-03-30T23:20:47.710Z,108.30
2019-03-30T23:23:18.014Z,103.63
2019-03-30T23:25:48.492Z,103.47
2019-03-30T23:28:18.683Z,114.87
2019-03-30T23:30:54.448Z,103.90
2019-03-30T23:33:20.804Z,105.53
2019-03-30T23:35:50.970Z,100.77
2019-03-30T23:38:21.134Z,104.57
2019-03-30T23:40:51.316Z,101.17
2019-03-30T23:43:21.480Z,108.90
2019-03-30T23:45:51.660Z,107.77
2019-03-30T23:48:21.882Z,103.13
2019-03-30T23:50:52.064Z,98.43
2019-03-30T23:53:22.220Z,95.53
2019-03-30T23:55:52.430Z,101.33
2019-03-30T23:58:22.730Z,94.47
